sensor_id;sensor_type;location;lat;lon;timestamp;temperature;humidity
28546;DHT22;15749;49.606;8.738;2022-07-29T00:00:16;26.60;67.80
28546;DHT22;15749;49.606;8.738;2022-07-29T00:03:03;26.60;67.80
28546;DHT22;15749;49.606;8.738;2022-07-29T00:05:52;26.60;67.80
28546;DHT22;15749;49.606;8.738;2022-07-29T00:08:40;26.60;68.40
28546;DHT22;15749;49.606;8.738;2022-07-29T00:11:29;26.60;68.60
28546;DHT22;15749;49.606;8.738;2022-07-29T00:14:17;26.60;68.10
28546;DHT22;15749;49.606;8.738;2022-07-29T00:17:05;26.60;68.20
28546;DHT22;15749;49.606;8.738;2022-07-29T00:19:53;26.60;68.60
28546;DHT22;15749;49.606;8.738;2022-07-29T00:22:40;26.60;68.60
28546;DHT22;15749;49.606;8.738;2022-07-29T00:25:28;26.60;69.30
28546;DHT22;15749;49.606;8.738;2022-07-29T00:28:20;26.60;68.90
28546;DHT22;15749;49.606;8.738;2022-07-29T00:31:08;26.50;68.80
28546;DHT22;15749;49.606;8.738;2022-07-29T00:33:57;26.50;68.70
28546;DHT22;15749;49.606;8.738;2022-07-29T00:36:44;26.50;68.10
28546;DHT22;15749;49.606;8.738;2022-07-29T00:39:31;26.50;67.40
28546;DHT22;15749;49.606;8.738;2022-07-29T00:42:19;26.50;67.20
28546;DHT22;15749;49.606;8.738;2022-07-29T00:45:09;26.40;67.80
28546;DHT22;15749;49.606;8.738;2022-07-29T00:47:58;26.40;67.30
28546;DHT22;15749;49.606;8.738;2022-07-29T00:50:46;26.40;68.20
28546;DHT22;15749;49.606;8.738;2022-07-29T00:53:35;26.40;68.60
28546;DHT22;15749;49.606;8.738;2022-07-29T00:56:24;26.40;68.70
28546;DHT22;15749;49.606;8.738;2022-07-29T00:59:11;26.40;68.80
28546;DHT22;15749;49.606;8.738;2022-07-29T01:02:01;26.30;68.50
28546;DHT22;15749;49.606;8.738;2022-07-29T01:04:49;26.30;67.70
28546;DHT22;15749;49.606;8.738;2022-07-29T01:07:39;26.30;68.60
28546;DHT22;15749;49.606;8.738;2022-07-29T01:10:28;26.20;68.00
28546;DHT22;15749;49.606;8.738;2022-07-29T01:13:16;26.20;68.30
28546;DHT22;15749;49.606;8.738;2022-07-29T01:16:18;26.20;67.90
28546;DHT22;15749;49.606;8.738;2022-07-29T01:19:28;26.20;67.20
28546;DHT22;15749;49.606;8.738;2022-07-29T01:22:44;26.20;67.50
28546;DHT22;15749;49.606;8.738;2022-07-29T01:26:11;26.10;68.50
28546;DHT22;15749;49.606;8.738;2022-07-29T01:29:27;26.10;68.30
28546;DHT22;15749;49.606;8.738;2022-07-29T01:32:26;26.10;68.10
28546;DHT22;15749;49.606;8.738;2022-07-29T01:35:20;26.10;68.40
28546;DHT22;15749;49.606;8.738;2022-07-29T01:38:13;26.00;68.00
28546;DHT22;15749;49.606;8.738;2022-07-29T01:41:08;26.00;68.00
28546;DHT22;15749;49.606;8.738;2022-07-29T01:44:01;26.00;68.40
28546;DHT22;15749;49.606;8.738;2022-07-29T01:46:58;25.90;68.00
28546;DHT22;15749;49.606;8.738;2022-07-29T01:49:55;25.90;69.00
28546;DHT22;15749;49.606;8.738;2022-07-29T01:52:52;25.90;68.10
28546;DHT22;15749;49.606;8.738;2022-07-29T01:55:44;25.80;68.50
28546;DHT22;15749;49.606;8.738;2022-07-29T01:58:34;25.80;67.40
28546;DHT22;15749;49.606;8.738;2022-07-29T02:01:24;25.80;67.80
28546;DHT22;15749;49.606;8.738;2022-07-29T02:04:17;25.80;67.10
28546;DHT22;15749;49.606;8.738;2022-07-29T02:07:17;25.70;67.80
28546;DHT22;15749;49.606;8.738;2022-07-29T02:10:08;25.70;67.50
28546;DHT22;15749;49.606;8.738;2022-07-29T02:12:58;25.70;68.10
28546;DHT22;15749;49.606;8.738;2022-07-29T02:15:48;25.60;67.00
28546;DHT22;15749;49.606;8.738;2022-07-29T02:18:40;25.60;67.90
28546;DHT22;15749;49.606;8.738;2022-07-29T02:21:32;25.60;68.00
28546;DHT22;15749;49.606;8.738;2022-07-29T02:24:23;25.60;68.70
28546;DHT22;15749;49.606;8.738;2022-07-29T02:27:13;25.60;68.60
28546;DHT22;15749;49.606;8.738;2022-07-29T02:30:02;25.60;67.90
28546;DHT22;15749;49.606;8.738;2022-07-29T02:32:51;25.50;67.40
28546;DHT22;15749;49.606;8.738;2022-07-29T02:35:41;25.50;66.90
28546;DHT22;15749;49.606;8.738;2022-07-29T02:38:32;25.40;67.90
28546;DHT22;15749;49.606;8.738;2022-07-29T02:41:45;25.40;69.50
28546;DHT22;15749;49.606;8.738;2022-07-29T02:44:35;25.40;68.60
28546;DHT22;15749;49.606;8.738;2022-07-29T02:47:26;25.40;68.50
28546;DHT22;15749;49.606;8.738;2022-07-29T02:50:31;25.40;69.50
28546;DHT22;15749;49.606;8.738;2022-07-29T02:53:23;25.30;66.80
28546;DHT22;15749;49.606;8.738;2022-07-29T02:56:15;25.30;66.70
28546;DHT22;15749;49.606;8.738;2022-07-29T02:59:09;25.30;66.20
28546;DHT22;15749;49.606;8.738;2022-07-29T03:01:59;25.30;66.20
28546;DHT22;15749;49.606;8.738;2022-07-29T03:04:48;25.20;66.80
28546;DHT22;15749;49.606;8.738;2022-07-29T03:07:38;25.20;67.80
28546;DHT22;15749;49.606;8.738;2022-07-29T03:10:27;25.20;68.10
28546;DHT22;15749;49.606;8.738;2022-07-29T03:13:17;25.20;68.00
28546;DHT22;15749;49.606;8.738;2022-07-29T03:16:06;25.20;67.70
28546;DHT22;15749;49.606;8.738;2022-07-29T03:18:55;25.10;68.40
28546;DHT22;15749;49.606;8.738;2022-07-29T03:21:43;25.10;67.70
28546;DHT22;15749;49.606;8.738;2022-07-29T03:24:32;25.10;67.60
28546;DHT22;15749;49.606;8.738;2022-07-29T03:27:21;25.00;68.30
28546;DHT22;15749;49.606;8.738;2022-07-29T03:30:12;25.00;68.20
28546;DHT22;15749;49.606;8.738;2022-07-29T03:33:07;25.00;68.70
28546;DHT22;15749;49.606;8.738;2022-07-29T03:35:58;25.00;68.10
28546;DHT22;15749;49.606;8.738;2022-07-29T03:38:49;25.00;68.40
28546;DHT22;15749;49.606;8.738;2022-07-29T03:41:38;25.00;68.30
28546;DHT22;15749;49.606;8.738;2022-07-29T03:44:28;25.00;68.30
28546;DHT22;15749;49.606;8.738;2022-07-29T03:47:20;25.00;68.00
28546;DHT22;15749;49.606;8.738;2022-07-29T03:50:33;24.90;68.80
28546;DHT22;15749;49.606;8.738;2022-07-29T03:53:22;24.90;68.40
28546;DHT22;15749;49.606;8.738;2022-07-29T03:56:12;24.90;69.10
28546;DHT22;15749;49.606;8.738;2022-07-29T03:59:02;24.90;69.00
28546;DHT22;15749;49.606;8.738;2022-07-29T04:01:51;24.90;68.20
28546;DHT22;15749;49.606;8.738;2022-07-29T04:04:40;24.90;68.80
28546;DHT22;15749;49.606;8.738;2022-07-29T04:07:29;24.90;68.70
28546;DHT22;15749;49.606;8.738;2022-07-29T04:10:19;24.80;68.30
28546;DHT22;15749;49.606;8.738;2022-07-29T04:13:16;24.80;69.00
28546;DHT22;15749;49.606;8.738;2022-07-29T04:16:04;24.80;69.10
28546;DHT22;15749;49.606;8.738;2022-07-29T04:18:52;24.80;69.20
28546;DHT22;15749;49.606;8.738;2022-07-29T04:21:42;24.80;69.10
28546;DHT22;15749;49.606;8.738;2022-07-29T04:24:31;24.70;68.30
28546;DHT22;15749;49.606;8.738;2022-07-29T04:27:19;24.70;68.80
28546;DHT22;15749;49.606;8.738;2022-07-29T04:30:08;24.70;69.00
28546;DHT22;15749;49.606;8.738;2022-07-29T04:32:56;24.70;68.40
28546;DHT22;15749;49.606;8.738;2022-07-29T04:35:44;24.70;68.90
28546;DHT22;15749;49.606;8.738;2022-07-29T04:38:41;24.60;68.60
28546;DHT22;15749;49.606;8.738;2022-07-29T04:41:29;24.60;68.40
28546;DHT22;15749;49.606;8.738;2022-07-29T04:44:18;24.60;69.10
28546;DHT22;15749;49.606;8.738;2022-07-29T04:47:13;24.60;68.60
28546;DHT22;15749;49.606;8.738;2022-07-29T04:50:17;24.60;68.80
28546;DHT22;15749;49.606;8.738;2022-07-29T04:53:17;24.60;69.00
28546;DHT22;15749;49.606;8.738;2022-07-29T04:56:20;24.60;70.00
28546;DHT22;15749;49.606;8.738;2022-07-29T04:59:17;24.50;68.70
28546;DHT22;15749;49.606;8.738;2022-07-29T05:02:51;24.60;69.50
28546;DHT22;15749;49.606;8.738;2022-07-29T05:05:56;24.60;70.40
28546;DHT22;15749;49.606;8.738;2022-07-29T05:08:52;24.60;70.90
28546;DHT22;15749;49.606;8.738;2022-07-29T05:12:04;24.60;71.20
28546;DHT22;15749;49.606;8.738;2022-07-29T05:15:34;24.60;71.20
28546;DHT22;15749;49.606;8.738;2022-07-29T05:18:27;24.60;70.90
28546;DHT22;15749;49.606;8.738;2022-07-29T05:21:16;24.60;70.70
28546;DHT22;15749;49.606;8.738;2022-07-29T05:24:04;24.60;70.90
28546;DHT22;15749;49.606;8.738;2022-07-29T05:27:14;24.60;69.90
28546;DHT22;15749;49.606;8.738;2022-07-29T05:30:03;24.60;69.80
28546;DHT22;15749;49.606;8.738;2022-07-29T05:32:51;24.50;71.10
28546;DHT22;15749;49.606;8.738;2022-07-29T05:35:39;24.50;70.70
28546;DHT22;15749;49.606;8.738;2022-07-29T05:38:28;24.50;69.90
28546;DHT22;15749;49.606;8.738;2022-07-29T05:41:16;24.50;70.40
28546;DHT22;15749;49.606;8.738;2022-07-29T05:44:06;24.50;70.30
28546;DHT22;15749;49.606;8.738;2022-07-29T05:46:54;24.50;70.80
28546;DHT22;15749;49.606;8.738;2022-07-29T05:49:42;24.50;70.80
28546;DHT22;15749;49.606;8.738;2022-07-29T05:52:30;24.50;71.50
28546;DHT22;15749;49.606;8.738;2022-07-29T05:55:18;24.50;70.50
28546;DHT22;15749;49.606;8.738;2022-07-29T05:58:05;24.50;70.70
28546;DHT22;15749;49.606;8.738;2022-07-29T06:00:54;24.50;70.80
28546;DHT22;15749;49.606;8.738;2022-07-29T06:03:45;24.60;71.10
28546;DHT22;15749;49.606;8.738;2022-07-29T06:06:33;24.60;71.20
28546;DHT22;15749;49.606;8.738;2022-07-29T06:09:21;24.60;71.50
28546;DHT22;15749;49.606;8.738;2022-07-29T06:12:09;24.60;70.90
28546;DHT22;15749;49.606;8.738;2022-07-29T06:14:56;24.60;71.50
28546;DHT22;15749;49.606;8.738;2022-07-29T06:17:47;24.60;71.50
28546;DHT22;15749;49.606;8.738;2022-07-29T06:20:46;24.70;71.10
28546;DHT22;15749;49.606;8.738;2022-07-29T06:23:34;24.70;71.10
28546;DHT22;15749;49.606;8.738;2022-07-29T06:26:22;24.70;70.90
28546;DHT22;15749;49.606;8.738;2022-07-29T06:29:17;24.70;70.60
28546;DHT22;15749;49.606;8.738;2022-07-29T06:32:05;24.80;70.80
28546;DHT22;15749;49.606;8.738;2022-07-29T06:34:59;24.80;70.70
28546;DHT22;15749;49.606;8.738;2022-07-29T06:38:07;24.90;70.20
28546;DHT22;15749;49.606;8.738;2022-07-29T06:41:15;24.90;70.80
28546;DHT22;15749;49.606;8.738;2022-07-29T06:44:03;25.00;71.00
28546;DHT22;15749;49.606;8.738;2022-07-29T06:46:51;25.00;70.80
28546;DHT22;15749;49.606;8.738;2022-07-29T06:49:41;25.00;71.00
28546;DHT22;15749;49.606;8.738;2022-07-29T06:52:30;25.10;70.00
28546;DHT22;15749;49.606;8.738;2022-07-29T06:55:18;25.10;70.70
28546;DHT22;15749;49.606;8.738;2022-07-29T06:58:10;25.20;71.40
28546;DHT22;15749;49.606;8.738;2022-07-29T07:01:02;25.20;71.50
28546;DHT22;15749;49.606;8.738;2022-07-29T07:03:54;25.30;71.90
28546;DHT22;15749;49.606;8.738;2022-07-29T07:06:42;25.30;71.50
28546;DHT22;15749;49.606;8.738;2022-07-29T07:09:34;25.30;72.30
28546;DHT22;15749;49.606;8.738;2022-07-29T07:12:27;25.40;70.40
28546;DHT22;15749;49.606;8.738;2022-07-29T07:15:15;25.50;71.30
28546;DHT22;15749;49.606;8.738;2022-07-29T07:18:23;25.50;70.90
28546;DHT22;15749;49.606;8.738;2022-07-29T07:21:11;25.60;71.60
28546;DHT22;15749;49.606;8.738;2022-07-29T07:24:05;25.60;71.90
28546;DHT22;15749;49.606;8.738;2022-07-29T07:26:55;25.70;71.60
28546;DHT22;15749;49.606;8.738;2022-07-29T07:29:43;25.70;72.00
28546;DHT22;15749;49.606;8.738;2022-07-29T07:32:31;25.70;71.90
28546;DHT22;15749;49.606;8.738;2022-07-29T07:35:19;25.80;73.20
28546;DHT22;15749;49.606;8.738;2022-07-29T07:38:07;25.80;72.70
28546;DHT22;15749;49.606;8.738;2022-07-29T07:40:56;25.90;72.30
28546;DHT22;15749;49.606;8.738;2022-07-29T07:43:45;26.00;73.00
28546;DHT22;15749;49.606;8.738;2022-07-29T07:46:33;26.00;72.90
28546;DHT22;15749;49.606;8.738;2022-07-29T07:49:23;26.10;73.50
28546;DHT22;15749;49.606;8.738;2022-07-29T07:52:11;26.10;72.40
28546;DHT22;15749;49.606;8.738;2022-07-29T07:55:00;26.20;72.40
28546;DHT22;15749;49.606;8.738;2022-07-29T07:57:52;26.20;72.90
28546;DHT22;15749;49.606;8.738;2022-07-29T08:00:44;26.30;73.00
28546;DHT22;15749;49.606;8.738;2022-07-29T08:03:34;26.40;72.20
28546;DHT22;15749;49.606;8.738;2022-07-29T08:06:24;26.50;72.70
28546;DHT22;15749;49.606;8.738;2022-07-29T08:09:12;26.50;72.60
28546;DHT22;15749;49.606;8.738;2022-07-29T08:12:15;26.60;73.60
28546;DHT22;15749;49.606;8.738;2022-07-29T08:15:03;26.60;73.10
28546;DHT22;15749;49.606;8.738;2022-07-29T08:17:55;26.70;72.90
28546;DHT22;15749;49.606;8.738;2022-07-29T08:20:43;26.70;73.50
28546;DHT22;15749;49.606;8.738;2022-07-29T08:23:30;26.80;72.80
28546;DHT22;15749;49.606;8.738;2022-07-29T08:26:37;26.80;73.30
28546;DHT22;15749;49.606;8.738;2022-07-29T08:29:25;26.90;73.20
28546;DHT22;15749;49.606;8.738;2022-07-29T08:32:13;26.90;72.90
28546;DHT22;15749;49.606;8.738;2022-07-29T08:35:23;27.00;73.30
28546;DHT22;15749;49.606;8.738;2022-07-29T08:38:11;27.00;73.10
28546;DHT22;15749;49.606;8.738;2022-07-29T08:41:00;27.00;72.60
28546;DHT22;15749;49.606;8.738;2022-07-29T08:43:49;27.10;73.40
28546;DHT22;15749;49.606;8.738;2022-07-29T08:46:38;27.10;73.30
28546;DHT22;15749;49.606;8.738;2022-07-29T08:49:26;27.20;73.10
28546;DHT22;15749;49.606;8.738;2022-07-29T08:52:16;27.20;73.00
28546;DHT22;15749;49.606;8.738;2022-07-29T08:55:05;27.20;73.00
28546;DHT22;15749;49.606;8.738;2022-07-29T08:57:54;27.30;72.70
28546;DHT22;15749;49.606;8.738;2022-07-29T09:00:46;27.30;73.30
28546;DHT22;15749;49.606;8.738;2022-07-29T09:03:40;27.40;72.80
28546;DHT22;15749;49.606;8.738;2022-07-29T09:06:31;27.50;73.30
28546;DHT22;15749;49.606;8.738;2022-07-29T09:09:21;27.50;71.90
28546;DHT22;15749;49.606;8.738;2022-07-29T09:12:09;27.50;72.00
28546;DHT22;15749;49.606;8.738;2022-07-29T09:15:14;27.50;71.70
28546;DHT22;15749;49.606;8.738;2022-07-29T09:18:02;27.60;72.80
28546;DHT22;15749;49.606;8.738;2022-07-29T09:20:52;27.60;73.30
28546;DHT22;15749;49.606;8.738;2022-07-29T09:24:02;27.60;72.70
28546;DHT22;15749;49.606;8.738;2022-07-29T09:26:54;27.70;72.90
28546;DHT22;15749;49.606;8.738;2022-07-29T09:29:41;27.80;73.50
28546;DHT22;15749;49.606;8.738;2022-07-29T09:32:29;27.80;73.80
28546;DHT22;15749;49.606;8.738;2022-07-29T09:35:19;27.80;73.30
28546;DHT22;15749;49.606;8.738;2022-07-29T09:38:12;27.90;73.30
28546;DHT22;15749;49.606;8.738;2022-07-29T09:41:03;27.90;71.70
28546;DHT22;15749;49.606;8.738;2022-07-29T09:43:58;27.90;73.10
28546;DHT22;15749;49.606;8.738;2022-07-29T09:46:58;28.00;72.40
28546;DHT22;15749;49.606;8.738;2022-07-29T09:49:54;28.10;71.70
28546;DHT22;15749;49.606;8.738;2022-07-29T09:52:46;28.20;71.50
28546;DHT22;15749;49.606;8.738;2022-07-29T09:55:46;28.20;72.30
28546;DHT22;15749;49.606;8.738;2022-07-29T09:58:37;28.30;72.30
28546;DHT22;15749;49.606;8.738;2022-07-29T10:01:29;28.30;72.20
28546;DHT22;15749;49.606;8.738;2022-07-29T10:04:17;28.40;71.10
28546;DHT22;15749;49.606;8.738;2022-07-29T10:07:06;28.50;70.80
28546;DHT22;15749;49.606;8.738;2022-07-29T10:09:55;28.50;70.40
28546;DHT22;15749;49.606;8.738;2022-07-29T10:12:52;28.50;71.30
28546;DHT22;15749;49.606;8.738;2022-07-29T10:15:43;28.60;72.60
28546;DHT22;15749;49.606;8.738;2022-07-29T10:18:34;28.70;71.80
28546;DHT22;15749;49.606;8.738;2022-07-29T10:21:23;28.70;71.90
28546;DHT22;15749;49.606;8.738;2022-07-29T10:24:22;28.80;70.90
28546;DHT22;15749;49.606;8.738;2022-07-29T10:27:15;28.80;70.10
28546;DHT22;15749;49.606;8.738;2022-07-29T10:30:05;28.90;69.60
28546;DHT22;15749;49.606;8.738;2022-07-29T10:33:08;29.00;70.60
28546;DHT22;15749;49.606;8.738;2022-07-29T10:36:12;29.00;70.70
28546;DHT22;15749;49.606;8.738;2022-07-29T10:39:19;29.10;70.90
28546;DHT22;15749;49.606;8.738;2022-07-29T10:42:28;29.10;69.80
28546;DHT22;15749;49.606;8.738;2022-07-29T10:45:20;29.20;70.30
28546;DHT22;15749;49.606;8.738;2022-07-29T10:48:09;29.20;70.10
28546;DHT22;15749;49.606;8.738;2022-07-29T10:51:01;29.30;70.00
28546;DHT22;15749;49.606;8.738;2022-07-29T10:53:59;29.30;69.80
28546;DHT22;15749;49.606;8.738;2022-07-29T10:56:52;29.40;69.90
28546;DHT22;15749;49.606;8.738;2022-07-29T10:59:40;29.40;69.50
28546;DHT22;15749;49.606;8.738;2022-07-29T11:02:48;29.40;70.00
28546;DHT22;15749;49.606;8.738;2022-07-29T11:06:07;29.50;67.20
28546;DHT22;15749;49.606;8.738;2022-07-29T11:09:16;29.50;66.70
28546;DHT22;15749;49.606;8.738;2022-07-29T11:12:46;29.60;68.70
28546;DHT22;15749;49.606;8.738;2022-07-29T11:15:52;29.60;68.60
28546;DHT22;15749;49.606;8.738;2022-07-29T11:22:32;29.70;67.50
28546;DHT22;15749;49.606;8.738;2022-07-29T11:25:21;29.80;68.00
28546;DHT22;15749;49.606;8.738;2022-07-29T11:28:35;29.80;68.40
28546;DHT22;15749;49.606;8.738;2022-07-29T11:31:38;29.90;68.20
28546;DHT22;15749;49.606;8.738;2022-07-29T11:34:29;29.90;67.20
28546;DHT22;15749;49.606;8.738;2022-07-29T11:37:22;29.90;66.30
28546;DHT22;15749;49.606;8.738;2022-07-29T11:40:17;29.90;67.80
28546;DHT22;15749;49.606;8.738;2022-07-29T11:43:47;30.00;68.00
28546;DHT22;15749;49.606;8.738;2022-07-29T11:46:55;30.00;66.90
28546;DHT22;15749;49.606;8.738;2022-07-29T11:49:44;30.00;67.60
28546;DHT22;15749;49.606;8.738;2022-07-29T11:52:34;30.10;66.60
28546;DHT22;15749;49.606;8.738;2022-07-29T11:55:38;30.10;67.60
28546;DHT22;15749;49.606;8.738;2022-07-29T11:58:48;30.10;66.50
28546;DHT22;15749;49.606;8.738;2022-07-29T12:01:38;30.20;66.30
28546;DHT22;15749;49.606;8.738;2022-07-29T12:04:59;30.20;67.00
28546;DHT22;15749;49.606;8.738;2022-07-29T12:08:04;30.20;67.20
28546;DHT22;15749;49.606;8.738;2022-07-29T12:10:59;30.20;66.30
28546;DHT22;15749;49.606;8.738;2022-07-29T12:13:50;30.20;66.90
28546;DHT22;15749;49.606;8.738;2022-07-29T12:16:38;30.20;66.80
28546;DHT22;15749;49.606;8.738;2022-07-29T12:19:27;30.30;66.60
28546;DHT22;15749;49.606;8.738;2022-07-29T12:22:24;30.30;65.80
28546;DHT22;15749;49.606;8.738;2022-07-29T12:25:14;30.30;65.80
28546;DHT22;15749;49.606;8.738;2022-07-29T12:28:21;30.30;64.90
28546;DHT22;15749;49.606;8.738;2022-07-29T12:31:15;30.30;65.10
28546;DHT22;15749;49.606;8.738;2022-07-29T12:34:24;30.30;65.00
28546;DHT22;15749;49.606;8.738;2022-07-29T12:37:15;30.40;64.30
28546;DHT22;15749;49.606;8.738;2022-07-29T12:40:04;30.40;64.50
28546;DHT22;15749;49.606;8.738;2022-07-29T12:43:10;30.40;63.30
28546;DHT22;15749;49.606;8.738;2022-07-29T12:46:12;30.50;65.40
28546;DHT22;15749;49.606;8.738;2022-07-29T12:49:03;30.50;62.90
28546;DHT22;15749;49.606;8.738;2022-07-29T12:51:51;30.50;63.90
28546;DHT22;15749;49.606;8.738;2022-07-29T12:54:46;30.60;63.20
28546;DHT22;15749;49.606;8.738;2022-07-29T12:57:45;30.60;64.30
28546;DHT22;15749;49.606;8.738;2022-07-29T13:00:34;30.60;63.90
28546;DHT22;15749;49.606;8.738;2022-07-29T13:03:23;30.60;63.70
28546;DHT22;15749;49.606;8.738;2022-07-29T13:06:38;30.70;63.60
28546;DHT22;15749;49.606;8.738;2022-07-29T13:09:39;30.70;64.10
28546;DHT22;15749;49.606;8.738;2022-07-29T13:12:27;30.70;64.80
28546;DHT22;15749;49.606;8.738;2022-07-29T13:15:16;30.70;63.90
28546;DHT22;15749;49.606;8.738;2022-07-29T13:18:05;30.80;62.70
28546;DHT22;15749;49.606;8.738;2022-07-29T13:21:15;30.80;63.50
28546;DHT22;15749;49.606;8.738;2022-07-29T13:24:05;30.80;63.30
28546;DHT22;15749;49.606;8.738;2022-07-29T13:26:53;30.80;64.20
28546;DHT22;15749;49.606;8.738;2022-07-29T13:29:42;30.80;63.20
28546;DHT22;15749;49.606;8.738;2022-07-29T13:32:31;30.80;63.50
28546;DHT22;15749;49.606;8.738;2022-07-29T13:35:20;30.80;63.30
28546;DHT22;15749;49.606;8.738;2022-07-29T13:38:09;30.80;63.10
28546;DHT22;15749;49.606;8.738;2022-07-29T13:41:00;30.90;63.20
28546;DHT22;15749;49.606;8.738;2022-07-29T13:43:48;30.90;64.30
28546;DHT22;15749;49.606;8.738;2022-07-29T13:46:37;30.90;64.00
28546;DHT22;15749;49.606;8.738;2022-07-29T13:49:25;30.90;64.20
28546;DHT22;15749;49.606;8.738;2022-07-29T13:52:13;30.90;63.70
28546;DHT22;15749;49.606;8.738;2022-07-29T13:55:04;30.90;63.50
28546;DHT22;15749;49.606;8.738;2022-07-29T13:57:52;30.90;63.50
28546;DHT22;15749;49.606;8.738;2022-07-29T14:00:40;30.90;64.00
28546;DHT22;15749;49.606;8.738;2022-07-29T14:03:28;30.90;62.30
28546;DHT22;15749;49.606;8.738;2022-07-29T14:06:16;30.90;62.90
28546;DHT22;15749;49.606;8.738;2022-07-29T14:09:07;30.90;62.80
28546;DHT22;15749;49.606;8.738;2022-07-29T14:11:57;30.90;62.40
28546;DHT22;15749;49.606;8.738;2022-07-29T14:14:46;30.90;62.40
28546;DHT22;15749;49.606;8.738;2022-07-29T14:17:34;30.90;61.30
28546;DHT22;15749;49.606;8.738;2022-07-29T14:20:21;30.90;62.50
28546;DHT22;15749;49.606;8.738;2022-07-29T14:23:10;30.90;61.70
28546;DHT22;15749;49.606;8.738;2022-07-29T14:26:01;30.90;60.90
28546;DHT22;15749;49.606;8.738;2022-07-29T14:28:55;30.90;61.20
28546;DHT22;15749;49.606;8.738;2022-07-29T14:31:43;30.90;61.10
28546;DHT22;15749;49.606;8.738;2022-07-29T14:34:31;30.90;61.40
28546;DHT22;15749;49.606;8.738;2022-07-29T14:37:19;30.90;61.50
28546;DHT22;15749;49.606;8.738;2022-07-29T14:40:08;30.90;60.90
28546;DHT22;15749;49.606;8.738;2022-07-29T14:42:57;30.90;62.10
28546;DHT22;15749;49.606;8.738;2022-07-29T14:45:46;30.90;60.80
28546;DHT22;15749;49.606;8.738;2022-07-29T14:48:35;30.90;60.00
28546;DHT22;15749;49.606;8.738;2022-07-29T14:51:22;31.00;60.40
28546;DHT22;15749;49.606;8.738;2022-07-29T14:54:17;31.00;60.70
28546;DHT22;15749;49.606;8.738;2022-07-29T14:57:05;31.00;59.90
28546;DHT22;15749;49.606;8.738;2022-07-29T14:59:53;30.90;60.40
28546;DHT22;15749;49.606;8.738;2022-07-29T15:02:43;31.00;61.50
28546;DHT22;15749;49.606;8.738;2022-07-29T15:05:49;31.00;58.50
28546;DHT22;15749;49.606;8.738;2022-07-29T15:08:38;31.00;58.60
28546;DHT22;15749;49.606;8.738;2022-07-29T15:11:41;31.00;58.90
28546;DHT22;15749;49.606;8.738;2022-07-29T15:14:29;31.00;57.70
28546;DHT22;15749;49.606;8.738;2022-07-29T15:17:24;30.90;57.50
28546;DHT22;15749;49.606;8.738;2022-07-29T15:20:19;30.90;58.80
28546;DHT22;15749;49.606;8.738;2022-07-29T15:23:10;30.90;58.80
28546;DHT22;15749;49.606;8.738;2022-07-29T15:25:59;30.90;58.70
28546;DHT22;15749;49.606;8.738;2022-07-29T15:28:47;30.90;59.40
28546;DHT22;15749;49.606;8.738;2022-07-29T15:31:35;30.90;59.70
28546;DHT22;15749;49.606;8.738;2022-07-29T15:34:23;31.00;58.70
28546;DHT22;15749;49.606;8.738;2022-07-29T15:37:12;31.00;59.50
28546;DHT22;15749;49.606;8.738;2022-07-29T15:40:02;31.00;58.60
28546;DHT22;15749;49.606;8.738;2022-07-29T15:42:51;31.00;59.50
28546;DHT22;15749;49.606;8.738;2022-07-29T15:45:40;30.90;59.40
28546;DHT22;15749;49.606;8.738;2022-07-29T15:48:50;30.90;58.80
28546;DHT22;15749;49.606;8.738;2022-07-29T15:51:42;30.90;58.60
28546;DHT22;15749;49.606;8.738;2022-07-29T15:54:32;31.00;59.50
28546;DHT22;15749;49.606;8.738;2022-07-29T15:57:20;30.90;60.00
28546;DHT22;15749;49.606;8.738;2022-07-29T16:00:09;30.90;60.10
28546;DHT22;15749;49.606;8.738;2022-07-29T16:02:58;30.90;59.60
28546;DHT22;15749;49.606;8.738;2022-07-29T16:05:46;30.90;59.40
28546;DHT22;15749;49.606;8.738;2022-07-29T16:08:34;30.90;59.70
28546;DHT22;15749;49.606;8.738;2022-07-29T16:11:25;30.90;60.10
28546;DHT22;15749;49.606;8.738;2022-07-29T16:14:13;30.90;59.70
28546;DHT22;15749;49.606;8.738;2022-07-29T16:17:01;30.90;60.80
28546;DHT22;15749;49.606;8.738;2022-07-29T16:19:49;30.80;60.20
28546;DHT22;15749;49.606;8.738;2022-07-29T16:22:38;30.80;60.70
28546;DHT22;15749;49.606;8.738;2022-07-29T16:25:26;30.80;61.80
28546;DHT22;15749;49.606;8.738;2022-07-29T16:28:35;30.70;62.10
28546;DHT22;15749;49.606;8.738;2022-07-29T16:31:23;30.70;62.70
28546;DHT22;15749;49.606;8.738;2022-07-29T16:34:12;30.70;62.40
28546;DHT22;15749;49.606;8.738;2022-07-29T16:37:00;30.60;62.60
28546;DHT22;15749;49.606;8.738;2022-07-29T16:39:48;30.60;63.10
28546;DHT22;15749;49.606;8.738;2022-07-29T16:42:35;30.60;63.30
28546;DHT22;15749;49.606;8.738;2022-07-29T16:45:33;30.50;63.50
28546;DHT22;15749;49.606;8.738;2022-07-29T16:48:31;30.50;64.10
28546;DHT22;15749;49.606;8.738;2022-07-29T16:51:20;30.40;64.40
28546;DHT22;15749;49.606;8.738;2022-07-29T16:54:08;30.40;65.00
28546;DHT22;15749;49.606;8.738;2022-07-29T16:56:56;30.30;65.90
28546;DHT22;15749;49.606;8.738;2022-07-29T16:59:45;30.30;67.00
28546;DHT22;15749;49.606;8.738;2022-07-29T17:02:36;30.20;65.90
28546;DHT22;15749;49.606;8.738;2022-07-29T17:05:24;30.10;66.40
28546;DHT22;15749;49.606;8.738;2022-07-29T17:08:11;30.00;66.30
28546;DHT22;15749;49.606;8.738;2022-07-29T17:10:59;29.90;67.30
28546;DHT22;15749;49.606;8.738;2022-07-29T17:13:46;29.80;67.60
28546;DHT22;15749;49.606;8.738;2022-07-29T17:16:34;29.70;67.80
28546;DHT22;15749;49.606;8.738;2022-07-29T17:19:23;29.60;68.30
28546;DHT22;15749;49.606;8.738;2022-07-29T17:22:11;29.50;68.80
28546;DHT22;15749;49.606;8.738;2022-07-29T17:25:05;29.40;68.70
28546;DHT22;15749;49.606;8.738;2022-07-29T17:27:53;29.30;69.60
28546;DHT22;15749;49.606;8.738;2022-07-29T17:30:45;29.20;69.80
28546;DHT22;15749;49.606;8.738;2022-07-29T17:33:33;29.10;69.90
28546;DHT22;15749;49.606;8.738;2022-07-29T17:36:22;29.10;70.30
28546;DHT22;15749;49.606;8.738;2022-07-29T17:39:10;29.00;70.10
28546;DHT22;15749;49.606;8.738;2022-07-29T17:41:57;29.00;70.30
28546;DHT22;15749;49.606;8.738;2022-07-29T17:44:45;28.90;70.30
28546;DHT22;15749;49.606;8.738;2022-07-29T17:47:32;28.90;71.30
28546;DHT22;15749;49.606;8.738;2022-07-29T17:50:22;28.80;70.30
28546;DHT22;15749;49.606;8.738;2022-07-29T17:53:11;28.70;71.40
28546;DHT22;15749;49.606;8.738;2022-07-29T17:56:02;28.70;70.90
28546;DHT22;15749;49.606;8.738;2022-07-29T17:58:51;28.60;70.20
28546;DHT22;15749;49.606;8.738;2022-07-29T18:01:38;28.60;71.40
28546;DHT22;15749;49.606;8.738;2022-07-29T18:04:26;28.50;70.80
28546;DHT22;15749;49.606;8.738;2022-07-29T18:07:16;28.50;71.10
28546;DHT22;15749;49.606;8.738;2022-07-29T18:10:05;28.40;70.80
28546;DHT22;15749;49.606;8.738;2022-07-29T18:12:53;28.40;71.10